createdAt,value
2018-03-24T00:00:25.489Z,3.20
2018-03-24T00:02:53.319Z,3.20
2018-03-24T00:05:21.743Z,3.30
2018-03-24T00:07:50.699Z,3.30
2018-03-24T00:10:18.384Z,3.30
2018-03-24T00:12:46.718Z,3.30
2018-03-24T00:15:15.174Z,3.30
2018-03-24T00:17:43.603Z,3.20
2018-03-24T00:20:11.262Z,3.30
2018-03-24T00:22:38.940Z,3.20
2018-03-24T00:25:06.582Z,3.20
2018-03-24T00:27:34.241Z,3.20
2018-03-24T00:30:01.904Z,3.20
2018-03-24T00:32:29.541Z,3.20
2018-03-24T00:34:57.957Z,3.20
2018-03-24T00:37:25.590Z,3.20
2018-03-24T00:39:53.991Z,3.20
2018-03-24T00:42:21.576Z,3.30
2018-03-24T00:44:49.208Z,3.20
2018-03-24T00:47:16.850Z,3.20
2018-03-24T00:49:45.262Z,3.20
2018-03-24T00:52:12.878Z,3.20
2018-03-24T00:54:40.546Z,3.20
2018-03-24T00:57:08.917Z,3.10
2018-03-24T00:59:37.304Z,3.10
2018-03-24T01:02:04.967Z,3.10
2018-03-24T01:04:32.563Z,3.10
2018-03-24T01:07:00.171Z,3.10
2018-03-24T01:09:28.594Z,3.10
2018-03-24T01:11:56.234Z,3.10
2018-03-24T01:14:23.925Z,3.10
2018-03-24T01:16:51.596Z,3.20
2018-03-24T01:19:20.517Z,3.20
2018-03-24T01:21:49.539Z,3.20
2018-03-24T01:24:17.214Z,3.20
2018-03-24T01:26:44.821Z,3.20
2018-03-24T01:29:12.557Z,3.20
2018-03-24T01:31:40.246Z,3.20
2018-03-24T01:34:08.008Z,3.20
2018-03-24T01:36:35.621Z,3.20
2018-03-24T01:39:03.249Z,3.20
2018-03-24T01:41:36.536Z,3.20
2018-03-24T01:44:04.959Z,3.20
2018-03-24T01:46:32.603Z,3.10
2018-03-24T01:49:00.221Z,3.10
2018-03-24T01:51:29.371Z,3.10
2018-03-24T01:53:57.056Z,3.10
2018-03-24T01:56:24.655Z,3.10
2018-03-24T01:58:54.843Z,3.10
2018-03-24T02:01:24.000Z,3.10
2018-03-24T02:03:51.608Z,3.10
2018-03-24T02:06:20.774Z,3.10
2018-03-24T02:08:48.393Z,3.10
2018-03-24T02:11:16.810Z,3.20
2018-03-24T02:13:44.431Z,3.20
2018-03-24T02:16:12.857Z,3.20
2018-03-24T02:18:40.619Z,3.20
2018-03-24T02:21:10.762Z,3.20
2018-03-24T02:23:38.409Z,3.20
2018-03-24T02:26:06.061Z,3.10
2018-03-24T02:28:33.796Z,3.10
2018-03-24T02:31:01.442Z,3.10
2018-03-24T02:33:29.892Z,3.10
2018-03-24T02:35:58.270Z,3.10
2018-03-24T02:38:25.980Z,3.10
2018-03-24T02:40:53.594Z,3.10
2018-03-24T02:43:21.524Z,3.10
2018-03-24T02:45:49.329Z,3.00
2018-03-24T02:48:16.934Z,3.10
2018-03-24T02:50:44.554Z,3.10
2018-03-24T02:53:12.213Z,3.10
2018-03-24T02:55:40.636Z,3.10
2018-03-24T02:58:08.317Z,3.10
2018-03-24T03:00:36.566Z,3.10
2018-03-24T03:03:04.170Z,3.20
2018-03-24T03:05:31.778Z,3.20
2018-03-24T03:07:59.416Z,3.30
2018-03-24T03:10:27.872Z,3.30
2018-03-24T03:12:55.482Z,3.30
2018-03-24T03:15:23.333Z,3.20
2018-03-24T03:17:51.883Z,3.30
2018-03-24T03:20:19.511Z,3.20
2018-03-24T03:22:47.342Z,3.20
2018-03-24T03:25:15.738Z,3.20
2018-03-24T03:27:43.422Z,3.20
2018-03-24T03:33:16.085Z,3.20
2018-03-24T03:35:43.719Z,3.20
2018-03-24T03:38:11.306Z,3.20
2018-03-24T03:40:38.958Z,3.20
2018-03-24T03:43:07.371Z,3.10
2018-03-24T03:45:34.999Z,3.10
2018-03-24T03:48:03.419Z,3.10
2018-03-24T03:50:31.036Z,3.10
2018-03-24T03:52:59.390Z,3.10
2018-03-24T03:55:27.010Z,3.10
2018-03-24T03:57:54.613Z,3.10
2018-03-24T04:00:23.026Z,3.10
2018-03-24T04:02:50.659Z,3.00
2018-03-24T04:05:19.033Z,3.00
2018-03-24T04:07:47.442Z,3.00
2018-03-24T04:10:15.059Z,2.90
2018-03-24T04:12:42.646Z,3.00
2018-03-24T04:15:11.014Z,3.00
2018-03-24T04:17:39.402Z,3.00
2018-03-24T04:20:07.771Z,3.00
2018-03-24T04:22:36.148Z,3.00
2018-03-24T04:25:04.556Z,3.10
2018-03-24T04:27:32.144Z,3.00
2018-03-24T04:29:59.734Z,3.00
2018-03-24T04:32:27.338Z,3.00
2018-03-24T04:34:54.973Z,2.90
2018-03-24T04:37:23.479Z,2.90
2018-03-24T04:39:51.145Z,2.90
2018-03-24T04:42:18.815Z,2.90
2018-03-24T04:44:46.403Z,2.90
2018-03-24T04:47:14.092Z,2.90
2018-03-24T04:49:42.490Z,2.90
2018-03-24T04:52:11.030Z,2.90
2018-03-24T04:54:38.657Z,2.90
2018-03-24T04:57:06.274Z,2.90
2018-03-24T04:59:33.907Z,2.90
2018-03-24T05:02:01.554Z,2.90
2018-03-24T05:04:29.171Z,2.90
2018-03-24T05:06:56.780Z,3.00
2018-03-24T05:09:24.740Z,3.00
2018-03-24T05:11:52.395Z,3.00
2018-03-24T05:14:20.024Z,3.00
2018-03-24T05:16:47.615Z,3.10
2018-03-24T05:19:15.894Z,3.00
2018-03-24T05:21:43.618Z,3.10
2018-03-24T05:24:11.927Z,3.10
2018-03-24T05:26:39.667Z,3.20
2018-03-24T05:29:07.253Z,3.20
2018-03-24T05:31:34.851Z,3.10
2018-03-24T05:34:03.273Z,3.10
2018-03-24T05:36:30.902Z,3.10
2018-03-24T05:38:59.283Z,3.10
2018-03-24T05:41:26.970Z,3.00
2018-03-24T05:43:54.694Z,3.00
2018-03-24T05:46:23.242Z,3.10
2018-03-24T05:48:50.952Z,3.00
2018-03-24T05:51:18.626Z,3.10
2018-03-24T05:53:46.306Z,3.10
2018-03-24T05:56:14.139Z,3.20
2018-03-24T05:58:41.818Z,3.20
2018-03-24T06:01:09.501Z,3.30
2018-03-24T06:03:37.135Z,3.30
2018-03-24T06:06:04.783Z,3.30
2018-03-24T06:08:32.409Z,3.30
2018-03-24T06:11:00.025Z,3.40
2018-03-24T06:13:27.653Z,3.40
2018-03-24T06:15:56.056Z,3.50
2018-03-24T06:18:23.680Z,3.50
2018-03-24T06:20:52.073Z,3.50
2018-03-24T06:23:20.528Z,3.50
2018-03-24T06:25:48.164Z,3.50
2018-03-24T06:28:15.776Z,3.50
2018-03-24T06:30:46.097Z,3.60
2018-03-24T06:33:14.531Z,3.60
2018-03-24T06:35:42.126Z,3.60
2018-03-24T06:38:10.552Z,3.70
2018-03-24T06:40:38.173Z,3.70
2018-03-24T06:43:05.827Z,3.80
2018-03-24T06:45:34.217Z,3.70
2018-03-24T06:48:02.578Z,3.70
2018-03-24T06:50:30.940Z,3.70
2018-03-24T06:52:58.547Z,3.70
2018-03-24T06:55:26.191Z,3.80
2018-03-24T06:57:53.781Z,3.80
2018-03-24T07:00:21.383Z,3.80
2018-03-24T07:02:49.066Z,3.70
2018-03-24T07:05:17.424Z,3.80
2018-03-24T07:07:45.894Z,4.00
2018-03-24T07:10:13.536Z,4.00
2018-03-24T07:12:41.146Z,4.20
2018-03-24T07:15:09.576Z,4.20
2018-03-24T07:17:37.244Z,4.20
2018-03-24T07:20:05.439Z,4.30
2018-03-24T07:22:33.066Z,4.50
2018-03-24T07:25:00.720Z,4.50
2018-03-24T07:27:28.370Z,4.50
2018-03-24T07:29:55.976Z,4.60
2018-03-24T07:32:23.621Z,4.70
2018-03-24T07:34:51.245Z,4.90
2018-03-24T07:37:18.862Z,5.00
2018-03-24T07:39:47.304Z,4.90
2018-03-24T07:42:15.688Z,4.90
2018-03-24T07:44:43.307Z,4.90
2018-03-24T07:47:10.950Z,5.00
2018-03-24T07:49:39.381Z,5.10
2018-03-24T07:52:07.019Z,5.10
2018-03-24T07:54:34.683Z,5.20
2018-03-24T07:57:02.291Z,5.20
2018-03-24T07:59:31.542Z,5.40
2018-03-24T08:01:59.153Z,5.40
2018-03-24T08:04:26.824Z,5.40
2018-03-24T08:06:55.248Z,5.50
2018-03-24T08:09:22.903Z,5.50
2018-03-24T08:11:51.226Z,5.60
2018-03-24T08:14:19.673Z,5.60
2018-03-24T08:16:47.663Z,5.60
2018-03-24T08:19:16.034Z,5.70
2018-03-24T08:21:44.729Z,5.90
2018-03-24T08:24:12.391Z,5.80
2018-03-24T08:26:40.015Z,5.80
2018-03-24T08:29:09.862Z,5.80
2018-03-24T08:31:38.283Z,5.90
2018-03-24T08:34:07.795Z,5.90
2018-03-24T08:36:35.422Z,5.90
2018-03-24T08:39:03.838Z,5.90
2018-03-24T08:41:31.464Z,5.90
2018-03-24T08:43:59.105Z,6.20
2018-03-24T08:46:26.746Z,6.10
2018-03-24T08:48:55.060Z,6.10
2018-03-24T08:51:23.493Z,6.30
2018-03-24T08:53:51.267Z,6.30
2018-03-24T08:56:18.878Z,6.30
2018-03-24T08:58:49.254Z,6.30
2018-03-24T09:01:17.290Z,6.30
2018-03-24T09:03:44.923Z,6.50
2018-03-24T09:06:13.605Z,6.80
2018-03-24T09:08:41.282Z,6.70
2018-03-24T09:11:08.989Z,6.90
2018-03-24T09:13:36.592Z,7.10
2018-03-24T09:16:05.091Z,7.50
2018-03-24T09:18:32.745Z,7.50
2018-03-24T09:21:00.473Z,7.60
2018-03-24T09:23:28.086Z,7.50
2018-03-24T09:25:55.732Z,7.40
2018-03-24T09:28:25.710Z,7.30
2018-03-24T09:30:53.340Z,7.30
2018-03-24T09:33:21.003Z,7.30
2018-03-24T09:35:49.544Z,7.40
2018-03-24T09:38:17.946Z,7.40
2018-03-24T09:40:45.596Z,7.40
2018-03-24T09:43:13.297Z,7.40
2018-03-24T09:45:41.074Z,7.40
2018-03-24T09:48:08.664Z,7.50
2018-03-24T09:50:37.032Z,7.90
2018-03-24T09:53:05.469Z,8.20
2018-03-24T09:55:33.369Z,8.10
2018-03-24T09:58:01.082Z,8.20
2018-03-24T10:00:28.806Z,8.40
2018-03-24T10:02:58.238Z,8.20
2018-03-24T10:05:25.969Z,8.20
2018-03-24T10:07:53.770Z,8.40
2018-03-24T10:10:21.518Z,8.60
2018-03-24T10:12:49.216Z,8.80
2018-03-24T10:15:16.919Z,9.20
2018-03-24T10:17:45.333Z,8.80
2018-03-24T10:20:12.956Z,8.80
2018-03-24T10:23:01.423Z,8.60
2018-03-24T10:25:29.833Z,8.90
2018-03-24T10:27:57.451Z,8.90
2018-03-24T10:30:26.219Z,8.70
2018-03-24T10:32:53.831Z,8.70
2018-03-24T10:35:21.494Z,9.10
2018-03-24T10:37:55.020Z,9.20
2018-03-24T10:40:22.664Z,9.40
2018-03-24T10:42:55.920Z,9.60
2018-03-24T10:45:25.043Z,9.70
2018-03-24T10:47:52.996Z,9.60
2018-03-24T10:50:20.620Z,9.80
2018-03-24T10:52:48.446Z,9.80
2018-03-24T10:55:16.068Z,9.80
2018-03-24T10:57:44.448Z,9.90
2018-03-24T11:00:12.866Z,10.10
2018-03-24T11:02:40.670Z,10.10
2018-03-24T11:05:09.386Z,10.10
2018-03-24T11:07:37.093Z,9.80
2018-03-24T11:10:04.723Z,9.70
2018-03-24T11:12:32.350Z,9.30
2018-03-24T11:15:00.754Z,9.10
2018-03-24T11:17:28.358Z,9.10
2018-03-24T11:19:55.971Z,8.80
2018-03-24T11:22:23.710Z,8.90
2018-03-24T11:24:53.083Z,9.00
2018-03-24T11:27:20.702Z,9.00
2018-03-24T11:29:48.700Z,8.90
2018-03-24T11:32:16.576Z,9.00
2018-03-24T11:34:44.230Z,9.10
2018-03-24T11:37:11.826Z,9.00
2018-03-24T11:39:40.185Z,9.00
2018-03-24T11:42:07.813Z,9.00
2018-03-24T11:44:35.412Z,9.00
2018-03-24T11:47:03.910Z,9.10
2018-03-24T11:49:32.455Z,9.40
2018-03-24T11:52:00.118Z,9.40
2018-03-24T11:54:39.482Z,9.60
2018-03-24T11:57:07.875Z,9.40
2018-03-24T11:59:35.542Z,9.40
2018-03-24T12:02:03.965Z,9.10
2018-03-24T12:04:31.612Z,9.10
2018-03-24T12:06:59.266Z,9.10
2018-03-24T12:09:26.859Z,9.00
2018-03-24T12:11:55.447Z,8.80
2018-03-24T12:14:23.620Z,8.60
2018-03-24T12:16:52.247Z,9.20
2018-03-24T12:19:19.876Z,9.10
2018-03-24T12:21:48.278Z,9.50
2018-03-24T12:24:15.896Z,9.60
2018-03-24T12:26:43.534Z,9.80
2018-03-24T12:29:11.126Z,9.90
2018-03-24T12:31:38.756Z,10.10
2018-03-24T12:34:07.168Z,10.60
2018-03-24T12:36:34.789Z,10.60
2018-03-24T12:39:02.387Z,11.00
2018-03-24T12:41:30.027Z,11.20
2018-03-24T12:43:58.397Z,12.20
2018-03-24T12:46:26.045Z,12.10
2018-03-24T12:48:53.737Z,12.60
2018-03-24T12:51:21.347Z,12.70
2018-03-24T12:53:48.958Z,12.60
2018-03-24T12:56:16.622Z,12.50
2018-03-24T12:58:44.351Z,12.80
2018-03-24T13:01:11.962Z,12.80
2018-03-24T13:03:40.404Z,13.20
2018-03-24T13:06:08.001Z,13.20
2018-03-24T13:08:36.450Z,15.00
2018-03-24T13:11:04.151Z,15.00
2018-03-24T13:13:31.773Z,15.60
2018-03-24T13:15:59.410Z,14.70
2018-03-24T13:18:27.041Z,14.60
2018-03-24T13:20:54.634Z,14.30
2018-03-24T13:23:22.229Z,14.40
2018-03-24T13:25:49.896Z,14.30
2018-03-24T13:28:17.517Z,14.20
2018-03-24T13:30:45.138Z,13.70
2018-03-24T13:33:13.530Z,13.40
2018-03-24T13:35:41.148Z,13.40
2018-03-24T13:38:08.812Z,13.00
2018-03-24T13:40:37.216Z,13.20
2018-03-24T13:43:05.588Z,14.60
2018-03-24T13:45:33.993Z,16.30
2018-03-24T13:48:01.634Z,16.20
2018-03-24T13:50:29.365Z,18.20
2018-03-24T13:52:58.570Z,17.80
2018-03-24T13:55:26.990Z,17.30
2018-03-24T13:57:54.611Z,17.30
2018-03-24T14:00:22.252Z,17.30
2018-03-24T14:02:49.862Z,17.00
2018-03-24T14:05:17.471Z,17.70
2018-03-24T14:07:45.103Z,18.90
2018-03-24T14:10:12.892Z,20.40
2018-03-24T14:12:40.515Z,21.80
2018-03-24T14:15:08.172Z,22.10
2018-03-24T14:17:35.817Z,21.50
2018-03-24T14:20:03.413Z,22.00
2018-03-24T14:22:31.625Z,23.60
2018-03-24T14:24:59.846Z,24.40
2018-03-24T14:27:28.321Z,23.60
2018-03-24T14:29:55.927Z,23.90
2018-03-24T14:32:23.567Z,24.50
2018-03-24T14:34:51.407Z,24.90
2018-03-24T14:37:19.078Z,24.20
2018-03-24T14:39:47.514Z,23.00
2018-03-24T14:42:15.886Z,23.00
2018-03-24T14:44:43.903Z,23.00
2018-03-24T14:47:11.542Z,22.90
2018-03-24T14:49:39.144Z,23.30
2018-03-24T14:52:06.757Z,22.80
2018-03-24T14:54:34.417Z,21.70
2018-03-24T14:57:02.807Z,21.30
2018-03-24T14:59:30.399Z,21.30
2018-03-24T15:01:58.120Z,20.50
2018-03-24T15:04:25.802Z,20.40
2018-03-24T15:06:53.667Z,20.50
2018-03-24T15:09:21.300Z,20.60
2018-03-24T15:11:49.714Z,20.00
2018-03-24T15:14:17.360Z,19.90
2018-03-24T15:16:45.275Z,20.00
2018-03-24T15:19:12.895Z,20.70
2018-03-24T15:21:41.247Z,21.60
2018-03-24T15:24:08.899Z,21.70
2018-03-24T15:26:37.282Z,22.40
2018-03-24T15:29:17.755Z,22.40
2018-03-24T15:31:57.246Z,22.40
2018-03-24T15:34:36.800Z,22.70
2018-03-24T15:37:05.266Z,18.70
2018-03-24T15:39:32.975Z,18.70
2018-03-24T15:42:00.653Z,17.40
2018-03-24T15:44:28.250Z,16.40
2018-03-24T15:46:55.913Z,15.30
2018-03-24T15:49:24.312Z,14.60
2018-03-24T15:51:52.741Z,13.20
2018-03-24T15:54:20.338Z,13.10
2018-03-24T15:56:47.948Z,12.90
2018-03-24T15:59:15.578Z,12.70
2018-03-24T16:01:43.980Z,12.30
2018-03-24T16:04:11.594Z,12.30
2018-03-24T16:06:39.967Z,11.80
2018-03-24T16:09:07.603Z,11.70
2018-03-24T16:11:35.247Z,11.50
2018-03-24T16:14:02.875Z,11.30
2018-03-24T16:16:31.323Z,11.20
2018-03-24T16:18:58.947Z,11.10
2018-03-24T16:21:26.690Z,11.10
2018-03-24T16:23:54.294Z,10.90
2018-03-24T16:26:21.902Z,10.90
2018-03-24T16:28:49.531Z,10.70
2018-03-24T16:31:17.127Z,10.60
2018-03-24T16:33:46.566Z,10.40
2018-03-24T16:36:14.175Z,10.30
2018-03-24T16:38:42.559Z,10.00
2018-03-24T16:41:10.978Z,9.90
2018-03-24T16:43:38.572Z,9.80
2018-03-24T16:46:06.307Z,9.70
2018-03-24T16:48:33.967Z,9.60
2018-03-24T16:51:01.571Z,9.50
2018-03-24T16:53:29.948Z,9.20
2018-03-24T16:55:58.366Z,9.10
2018-03-24T16:58:25.950Z,9.10
2018-03-24T17:00:53.607Z,9.10
2018-03-24T17:03:21.229Z,8.80
2018-03-24T17:05:48.861Z,8.70
2018-03-24T17:08:17.255Z,8.40
2018-03-24T17:10:45.647Z,8.30
2018-03-24T17:13:13.305Z,8.30
2018-03-24T17:15:40.916Z,8.20
2018-03-24T17:18:08.538Z,8.10
2018-03-24T17:20:36.184Z,8.00
2018-03-24T17:23:03.765Z,7.90
2018-03-24T17:25:31.403Z,7.80
2018-03-24T17:28:00.263Z,7.80
2018-03-24T17:30:27.883Z,7.70
2018-03-24T17:32:56.093Z,7.70
2018-03-24T17:35:23.744Z,7.60
2018-03-24T17:37:51.373Z,7.50
2018-03-24T17:40:18.998Z,7.40
2018-03-24T17:42:47.417Z,7.20
2018-03-24T17:45:15.752Z,7.20
2018-03-24T17:47:44.153Z,7.00
2018-03-24T17:50:12.449Z,7.00
2018-03-24T17:52:40.053Z,7.00
2018-03-24T17:55:07.891Z,6.90
2018-03-24T17:57:35.504Z,6.80
2018-03-24T18:00:03.134Z,6.80
2018-03-24T18:02:31.571Z,6.60
2018-03-24T18:04:59.170Z,6.60
2018-03-24T18:07:26.768Z,6.50
2018-03-24T18:09:54.770Z,6.50
2018-03-24T18:12:22.377Z,6.40
2018-03-24T18:14:50.824Z,6.30
2018-03-24T18:17:18.450Z,6.30
2018-03-24T18:19:46.195Z,6.30
2018-03-24T18:22:13.838Z,6.20
2018-03-24T18:24:42.205Z,6.10
2018-03-24T18:27:10.620Z,6.00
2018-03-24T18:29:38.210Z,6.00
2018-03-24T18:32:05.865Z,6.00
2018-03-24T18:34:33.526Z,6.00
2018-03-24T18:37:01.135Z,5.90
2018-03-24T18:39:29.544Z,5.80
2018-03-24T18:41:57.177Z,5.80
2018-03-24T18:44:25.561Z,5.80
2018-03-24T18:46:53.961Z,5.70
2018-03-24T18:49:21.766Z,5.70
2018-03-24T18:51:50.022Z,5.70
2018-03-24T18:54:17.647Z,5.70
2018-03-24T18:56:46.036Z,5.70
2018-03-24T18:59:13.651Z,5.60
2018-03-24T19:01:41.305Z,5.60
2018-03-24T19:04:08.928Z,5.60
2018-03-24T19:06:36.590Z,5.60
2018-03-24T19:09:04.186Z,5.60
2018-03-24T19:11:32.634Z,5.40
2018-03-24T19:14:00.240Z,5.40
2018-03-24T19:16:28.599Z,5.30
2018-03-24T19:18:58.767Z,5.20
2018-03-24T19:21:26.372Z,5.20
2018-03-24T19:23:55.040Z,5.10
2018-03-24T19:26:22.646Z,5.10
2018-03-24T19:28:50.262Z,5.10
2018-03-24T19:31:17.921Z,5.10
2018-03-24T19:33:45.511Z,5.00
2018-03-24T19:36:13.147Z,5.00
2018-03-24T19:38:40.769Z,5.00
2018-03-24T19:41:08.391Z,5.00
2018-03-24T19:43:36.028Z,4.90
2018-03-24T19:46:03.707Z,4.90
2018-03-24T19:48:31.314Z,4.90
2018-03-24T19:50:58.982Z,4.80
2018-03-24T19:53:27.169Z,4.80
2018-03-24T19:55:54.773Z,4.80
2018-03-24T19:58:22.407Z,4.70
2018-03-24T20:00:50.003Z,4.70
2018-03-24T20:03:18.432Z,4.70
2018-03-24T20:05:46.053Z,4.60
2018-03-24T20:08:13.749Z,4.60
2018-03-24T20:10:41.365Z,4.60
2018-03-24T20:13:09.894Z,4.50
2018-03-24T20:15:37.500Z,4.50
2018-03-24T20:18:05.859Z,4.40
2018-03-24T20:20:33.518Z,4.40
2018-03-24T20:23:01.115Z,4.40
2018-03-24T20:25:28.712Z,4.40
2018-03-24T20:27:56.348Z,4.40
2018-03-24T20:30:24.373Z,4.40
2018-03-24T20:32:51.979Z,4.40
2018-03-24T20:35:19.608Z,4.40
2018-03-24T20:37:47.992Z,4.30
2018-03-24T20:40:16.467Z,4.30
2018-03-24T20:42:44.872Z,4.30
2018-03-24T20:45:12.479Z,4.30
2018-03-24T20:47:40.092Z,4.30
2018-03-24T20:50:07.879Z,4.30
2018-03-24T20:52:36.110Z,4.30
2018-03-24T20:55:04.507Z,4.20
2018-03-24T20:57:32.158Z,4.20
2018-03-24T20:59:59.813Z,4.30
2018-03-24T21:02:28.190Z,4.20
2018-03-24T21:04:56.558Z,4.20
2018-03-24T21:07:24.232Z,4.20
2018-03-24T21:09:51.823Z,4.20
2018-03-24T21:12:19.546Z,4.20
2018-03-24T21:14:48.031Z,4.20
2018-03-24T21:17:15.669Z,4.20
2018-03-24T21:19:43.294Z,4.10
2018-03-24T21:22:10.897Z,4.10
2018-03-24T21:24:39.295Z,4.00
2018-03-24T21:27:07.885Z,4.00
2018-03-24T21:29:35.517Z,4.00
2018-03-24T21:32:03.942Z,4.00
2018-03-24T21:34:31.565Z,3.90
2018-03-24T21:36:59.932Z,4.00
2018-03-24T21:39:28.339Z,4.00
2018-03-24T21:41:55.940Z,4.00
2018-03-24T21:44:23.569Z,4.10
2018-03-24T21:46:51.198Z,4.20
2018-03-24T21:49:19.576Z,4.30
2018-03-24T21:51:47.977Z,4.30
2018-03-24T21:54:15.637Z,4.30
2018-03-24T21:56:43.227Z,4.20
2018-03-24T21:59:10.850Z,4.10
2018-03-24T22:01:38.527Z,4.10
2018-03-24T22:04:06.148Z,4.10
2018-03-24T22:06:33.767Z,4.10
2018-03-24T22:09:01.451Z,4.00
2018-03-24T22:11:29.048Z,4.00
2018-03-24T22:13:57.451Z,3.90
2018-03-24T22:16:25.076Z,3.90
2018-03-24T22:18:53.707Z,3.80
2018-03-24T22:21:21.319Z,3.80
2018-03-24T22:23:49.684Z,3.70
2018-03-24T22:26:17.534Z,3.70
2018-03-24T22:28:45.168Z,3.70
2018-03-24T22:31:13.020Z,3.70
2018-03-24T22:33:40.689Z,3.70
2018-03-24T22:36:08.298Z,3.70
2018-03-24T22:38:35.927Z,3.70
2018-03-24T22:41:03.581Z,3.70
2018-03-24T22:43:31.449Z,3.70
2018-03-24T22:45:59.074Z,3.70
2018-03-24T22:48:27.458Z,3.70
2018-03-24T22:50:55.083Z,3.70
2018-03-24T22:53:23.505Z,3.70
2018-03-24T22:55:51.263Z,3.70
2018-03-24T22:58:19.669Z,3.70
2018-03-24T23:00:47.281Z,3.60
2018-03-24T23:03:15.690Z,3.50
2018-03-24T23:05:43.297Z,3.50
2018-03-24T23:08:10.897Z,3.50
2018-03-24T23:10:38.556Z,3.40
2018-03-24T23:13:06.265Z,3.40
2018-03-24T23:15:33.915Z,3.40
2018-03-24T23:18:01.544Z,3.40
2018-03-24T23:20:29.358Z,3.40
2018-03-24T23:22:57.020Z,3.40
2018-03-24T23:25:24.695Z,3.40
2018-03-24T23:27:53.073Z,3.40
2018-03-24T23:30:20.734Z,3.40
2018-03-24T23:32:48.354Z,3.40
2018-03-24T23:35:15.970Z,3.40
2018-03-24T23:37:44.402Z,3.40
2018-03-24T23:40:12.020Z,3.40
2018-03-24T23:42:39.790Z,3.40
2018-03-24T23:45:07.388Z,3.40
2018-03-24T23:47:35.002Z,3.40
2018-03-24T23:50:02.704Z,3.40
2018-03-24T23:52:30.330Z,3.40
2018-03-24T23:54:57.947Z,3.40
2018-03-24T23:57:25.590Z,3.40
2018-03-24T23:59:53.278Z,3.30
